sensor_id;sensor_type;location;lat;lon;timestamp;temperature;humidity
15217;DHT22;7711;46.634;14.318;2023-06-14T00:00:18;15.30;99.90
15217;DHT22;7711;46.634;14.318;2023-06-14T00:02:45;15.30;99.90
15217;DHT22;7711;46.634;14.318;2023-06-14T00:05:12;15.30;99.90
15217;DHT22;7711;46.634;14.318;2023-06-14T00:07:41;15.50;99.90
15217;DHT22;7711;46.634;14.318;2023-06-14T00:10:09;15.40;99.90
15217;DHT22;7711;46.634;14.318;2023-06-14T00:12:38;15.30;99.90
15217;DHT22;7711;46.634;14.318;2023-06-14T00:15:06;15.30;99.90
15217;DHT22;7711;46.634;14.318;2023-06-14T00:17:35;15.30;99.90
15217;DHT22;7711;46.634;14.318;2023-06-14T00:20:03;15.40;99.90
15217;DHT22;7711;46.634;14.318;2023-06-14T00:22:33;15.40;99.90
15217;DHT22;7711;46.634;14.318;2023-06-14T00:25:04;15.30;1.00
15217;DHT22;7711;46.634;14.318;2023-06-14T00:27:31;15.40;1.00
15217;DHT22;7711;46.634;14.318;2023-06-14T00:29:58;15.40;1.00
15217;DHT22;7711;46.634;14.318;2023-06-14T00:32:25;15.40;1.00
15217;DHT22;7711;46.634;14.318;2023-06-14T00:34:53;15.30;1.00
15217;DHT22;7711;46.634;14.318;2023-06-14T00:37:20;15.20;1.00
15217;DHT22;7711;46.634;14.318;2023-06-14T00:39:47;15.30;1.00
15217;DHT22;7711;46.634;14.318;2023-06-14T00:42:24;15.30;1.00
15217;DHT22;7711;46.634;14.318;2023-06-14T00:44:52;15.30;1.00
15217;DHT22;7711;46.634;14.318;2023-06-14T00:47:19;15.30;1.00
15217;DHT22;7711;46.634;14.318;2023-06-14T00:49:47;15.30;1.00
15217;DHT22;7711;46.634;14.318;2023-06-14T00:52:14;15.30;99.90
15217;DHT22;7711;46.634;14.318;2023-06-14T00:54:42;15.30;99.90
15217;DHT22;7711;46.634;14.318;2023-06-14T00:57:10;15.30;99.90
15217;DHT22;7711;46.634;14.318;2023-06-14T00:59:42;15.30;99.90
15217;DHT22;7711;46.634;14.318;2023-06-14T01:02:10;15.20;99.90
15217;DHT22;7711;46.634;14.318;2023-06-14T01:04:37;15.20;99.90
15217;DHT22;7711;46.634;14.318;2023-06-14T01:07:11;15.20;99.90
15217;DHT22;7711;46.634;14.318;2023-06-14T01:09:58;15.20;99.90
15217;DHT22;7711;46.634;14.318;2023-06-14T01:12:34;15.20;99.90
15217;DHT22;7711;46.634;14.318;2023-06-14T01:15:06;15.10;99.90
15217;DHT22;7711;46.634;14.318;2023-06-14T01:17:34;15.10;99.90
15217;DHT22;7711;46.634;14.318;2023-06-14T01:20:02;15.00;99.90
15217;DHT22;7711;46.634;14.318;2023-06-14T01:22:36;15.00;99.90
15217;DHT22;7711;46.634;14.318;2023-06-14T01:25:06;14.90;99.90
15217;DHT22;7711;46.634;14.318;2023-06-14T01:27:33;14.90;99.90
15217;DHT22;7711;46.634;14.318;2023-06-14T01:30:01;14.90;99.90
15217;DHT22;7711;46.634;14.318;2023-06-14T01:32:31;14.80;99.90
15217;DHT22;7711;46.634;14.318;2023-06-14T01:34:58;14.70;99.90
15217;DHT22;7711;46.634;14.318;2023-06-14T01:37:25;14.60;99.90
15217;DHT22;7711;46.634;14.318;2023-06-14T01:39:53;14.50;99.90
15217;DHT22;7711;46.634;14.318;2023-06-14T01:42:23;14.50;99.90
15217;DHT22;7711;46.634;14.318;2023-06-14T01:44:52;14.40;99.90
15217;DHT22;7711;46.634;14.318;2023-06-14T01:47:20;14.50;99.90
15217;DHT22;7711;46.634;14.318;2023-06-14T01:49:47;14.50;99.90
15217;DHT22;7711;46.634;14.318;2023-06-14T01:52:15;14.40;99.90
15217;DHT22;7711;46.634;14.318;2023-06-14T01:54:42;14.20;99.90
15217;DHT22;7711;46.634;14.318;2023-06-14T01:57:09;14.10;99.90
15217;DHT22;7711;46.634;14.318;2023-06-14T01:59:37;14.10;99.90
15217;DHT22;7711;46.634;14.318;2023-06-14T02:02:04;14.00;99.90
15217;DHT22;7711;46.634;14.318;2023-06-14T02:04:31;13.90;99.90
15217;DHT22;7711;46.634;14.318;2023-06-14T02:06:58;13.80;99.90
15217;DHT22;7711;46.634;14.318;2023-06-14T02:09:25;13.80;1.00
15217;DHT22;7711;46.634;14.318;2023-06-14T02:11:52;13.80;1.00
15217;DHT22;7711;46.634;14.318;2023-06-14T02:14:19;13.80;1.00
15217;DHT22;7711;46.634;14.318;2023-06-14T02:16:47;13.70;1.00
15217;DHT22;7711;46.634;14.318;2023-06-14T02:19:15;13.70;1.00
15217;DHT22;7711;46.634;14.318;2023-06-14T02:21:42;13.60;1.00
15217;DHT22;7711;46.634;14.318;2023-06-14T02:24:10;13.60;1.00
15217;DHT22;7711;46.634;14.318;2023-06-14T02:26:37;13.60;1.00
15217;DHT22;7711;46.634;14.318;2023-06-14T02:29:04;13.60;1.00
15217;DHT22;7711;46.634;14.318;2023-06-14T02:31:35;13.60;1.00
15217;DHT22;7711;46.634;14.318;2023-06-14T02:34:03;13.50;1.00
15217;DHT22;7711;46.634;14.318;2023-06-14T02:36:30;13.50;1.00
15217;DHT22;7711;46.634;14.318;2023-06-14T02:38:57;13.50;1.00
15217;DHT22;7711;46.634;14.318;2023-06-14T02:41:24;13.40;1.00
15217;DHT22;7711;46.634;14.318;2023-06-14T02:43:51;13.40;1.00
15217;DHT22;7711;46.634;14.318;2023-06-14T02:46:18;13.30;1.00
15217;DHT22;7711;46.634;14.318;2023-06-14T02:48:45;13.20;1.00
15217;DHT22;7711;46.634;14.318;2023-06-14T02:51:13;13.30;10.20
15217;DHT22;7711;46.634;14.318;2023-06-14T02:53:40;13.20;12.10
15217;DHT22;7711;46.634;14.318;2023-06-14T02:56:07;13.20;99.90
15217;DHT22;7711;46.634;14.318;2023-06-14T02:58:35;13.20;55.20
15217;DHT22;7711;46.634;14.318;2023-06-14T03:01:02;13.20;43.90
15217;DHT22;7711;46.634;14.318;2023-06-14T03:03:29;13.20;71.40
15217;DHT22;7711;46.634;14.318;2023-06-14T03:05:56;13.20;99.90
15217;DHT22;7711;46.634;14.318;2023-06-14T03:08:25;13.30;85.70
15217;DHT22;7711;46.634;14.318;2023-06-14T03:10:53;13.30;1.00
15217;DHT22;7711;46.634;14.318;2023-06-14T03:13:21;13.30;1.00
15217;DHT22;7711;46.634;14.318;2023-06-14T03:15:49;13.30;33.10
15217;DHT22;7711;46.634;14.318;2023-06-14T03:18:17;13.30;99.90
15217;DHT22;7711;46.634;14.318;2023-06-14T03:20:44;13.30;99.90
15217;DHT22;7711;46.634;14.318;2023-06-14T03:23:12;13.40;99.90
15217;DHT22;7711;46.634;14.318;2023-06-14T03:25:40;13.30;1.00
15217;DHT22;7711;46.634;14.318;2023-06-14T03:28:07;13.20;99.90
15217;DHT22;7711;46.634;14.318;2023-06-14T03:30:34;13.10;99.90
15217;DHT22;7711;46.634;14.318;2023-06-14T03:33:02;13.00;1.00
15217;DHT22;7711;46.634;14.318;2023-06-14T03:35:29;13.00;1.00
15217;DHT22;7711;46.634;14.318;2023-06-14T03:37:56;12.90;1.00
15217;DHT22;7711;46.634;14.318;2023-06-14T03:40:23;12.90;1.00
15217;DHT22;7711;46.634;14.318;2023-06-14T03:42:53;13.00;1.00
15217;DHT22;7711;46.634;14.318;2023-06-14T03:45:21;13.00;1.00
15217;DHT22;7711;46.634;14.318;2023-06-14T03:47:48;13.20;1.00
15217;DHT22;7711;46.634;14.318;2023-06-14T03:50:16;13.20;1.00
15217;DHT22;7711;46.634;14.318;2023-06-14T03:52:43;13.30;1.00
15217;DHT22;7711;46.634;14.318;2023-06-14T03:55:10;13.40;99.90
15217;DHT22;7711;46.634;14.318;2023-06-14T03:57:38;13.30;99.90
15217;DHT22;7711;46.634;14.318;2023-06-14T04:00:09;13.30;99.90
15217;DHT22;7711;46.634;14.318;2023-06-14T04:02:37;13.40;99.90
15217;DHT22;7711;46.634;14.318;2023-06-14T04:05:04;13.40;99.90
15217;DHT22;7711;46.634;14.318;2023-06-14T04:07:34;13.40;99.90
15217;DHT22;7711;46.634;14.318;2023-06-14T04:10:06;13.30;99.90
15217;DHT22;7711;46.634;14.318;2023-06-14T04:12:34;13.40;99.90
15217;DHT22;7711;46.634;14.318;2023-06-14T04:15:01;13.40;99.90
15217;DHT22;7711;46.634;14.318;2023-06-14T04:17:29;13.50;99.90
15217;DHT22;7711;46.634;14.318;2023-06-14T04:19:58;13.60;99.90
15217;DHT22;7711;46.634;14.318;2023-06-14T04:22:25;13.70;99.90
15217;DHT22;7711;46.634;14.318;2023-06-14T04:24:54;13.80;99.90
15217;DHT22;7711;46.634;14.318;2023-06-14T04:27:22;13.90;1.00
15217;DHT22;7711;46.634;14.318;2023-06-14T04:29:51;14.00;1.00
15217;DHT22;7711;46.634;14.318;2023-06-14T04:32:23;13.90;1.00
15217;DHT22;7711;46.634;14.318;2023-06-14T04:34:53;14.00;1.00
15217;DHT22;7711;46.634;14.318;2023-06-14T04:37:20;14.00;1.00
15217;DHT22;7711;46.634;14.318;2023-06-14T04:39:48;14.10;1.00
15217;DHT22;7711;46.634;14.318;2023-06-14T04:42:15;14.10;1.00
15217;DHT22;7711;46.634;14.318;2023-06-14T04:44:43;14.20;1.00
15217;DHT22;7711;46.634;14.318;2023-06-14T04:47:10;14.30;1.00
15217;DHT22;7711;46.634;14.318;2023-06-14T04:49:38;14.40;1.00
15217;DHT22;7711;46.634;14.318;2023-06-14T04:52:07;14.70;1.00
15217;DHT22;7711;46.634;14.318;2023-06-14T04:54:35;14.70;1.00
15217;DHT22;7711;46.634;14.318;2023-06-14T04:57:04;14.80;1.00
15217;DHT22;7711;46.634;14.318;2023-06-14T04:59:31;14.70;1.00
15217;DHT22;7711;46.634;14.318;2023-06-14T05:01:59;14.70;1.00
15217;DHT22;7711;46.634;14.318;2023-06-14T05:04:26;14.70;99.90
15217;DHT22;7711;46.634;14.318;2023-06-14T05:06:53;14.80;99.90
15217;DHT22;7711;46.634;14.318;2023-06-14T05:09:22;14.80;99.90
15217;DHT22;7711;46.634;14.318;2023-06-14T05:11:49;14.90;99.90
15217;DHT22;7711;46.634;14.318;2023-06-14T05:14:16;15.00;99.90
15217;DHT22;7711;46.634;14.318;2023-06-14T05:16:43;15.00;99.90
15217;DHT22;7711;46.634;14.318;2023-06-14T05:19:10;15.00;99.90
15217;DHT22;7711;46.634;14.318;2023-06-14T05:21:38;15.10;99.90
15217;DHT22;7711;46.634;14.318;2023-06-14T05:24:05;15.10;99.90
15217;DHT22;7711;46.634;14.318;2023-06-14T05:26:33;15.20;99.90
15217;DHT22;7711;46.634;14.318;2023-06-14T05:29:01;15.40;99.90
15217;DHT22;7711;46.634;14.318;2023-06-14T05:31:28;15.40;99.90
15217;DHT22;7711;46.634;14.318;2023-06-14T05:33:55;15.40;99.90
15217;DHT22;7711;46.634;14.318;2023-06-14T05:36:22;15.50;99.90
15217;DHT22;7711;46.634;14.318;2023-06-14T05:38:49;15.50;99.90
15217;DHT22;7711;46.634;14.318;2023-06-14T05:41:16;15.50;99.90
15217;DHT22;7711;46.634;14.318;2023-06-14T05:43:44;15.50;99.90
15217;DHT22;7711;46.634;14.318;2023-06-14T05:46:11;15.70;99.90
15217;DHT22;7711;46.634;14.318;2023-06-14T05:48:38;15.70;99.90
15217;DHT22;7711;46.634;14.318;2023-06-14T05:51:05;15.50;99.90
15217;DHT22;7711;46.634;14.318;2023-06-14T05:53:34;15.40;99.90
15217;DHT22;7711;46.634;14.318;2023-06-14T05:56:01;15.40;99.90
15217;DHT22;7711;46.634;14.318;2023-06-14T05:58:28;15.50;99.90
15217;DHT22;7711;46.634;14.318;2023-06-14T06:00:57;15.50;99.90
15217;DHT22;7711;46.634;14.318;2023-06-14T06:03:24;15.60;99.90
15217;DHT22;7711;46.634;14.318;2023-06-14T06:05:51;15.70;99.90
15217;DHT22;7711;46.634;14.318;2023-06-14T06:08:17;15.90;99.90
15217;DHT22;7711;46.634;14.318;2023-06-14T06:10:44;16.20;99.90
15217;DHT22;7711;46.634;14.318;2023-06-14T06:13:12;16.30;99.90
15217;DHT22;7711;46.634;14.318;2023-06-14T06:15:39;16.50;99.90
15217;DHT22;7711;46.634;14.318;2023-06-14T06:18:07;16.40;99.90
15217;DHT22;7711;46.634;14.318;2023-06-14T06:20:35;16.40;99.90
15217;DHT22;7711;46.634;14.318;2023-06-14T06:23:02;16.60;99.90
15217;DHT22;7711;46.634;14.318;2023-06-14T06:25:29;16.80;99.90
15217;DHT22;7711;46.634;14.318;2023-06-14T06:27:57;16.70;99.90
15217;DHT22;7711;46.634;14.318;2023-06-14T06:30:25;16.70;99.90
15217;DHT22;7711;46.634;14.318;2023-06-14T06:32:52;16.40;99.90
15217;DHT22;7711;46.634;14.318;2023-06-14T06:35:20;16.60;99.90
15217;DHT22;7711;46.634;14.318;2023-06-14T06:37:47;16.70;99.90
15217;DHT22;7711;46.634;14.318;2023-06-14T06:40:14;16.70;99.90
15217;DHT22;7711;46.634;14.318;2023-06-14T06:42:41;16.70;99.90
15217;DHT22;7711;46.634;14.318;2023-06-14T06:45:09;16.80;99.90
15217;DHT22;7711;46.634;14.318;2023-06-14T06:47:36;16.90;99.90
15217;DHT22;7711;46.634;14.318;2023-06-14T06:50:04;17.00;99.90
15217;DHT22;7711;46.634;14.318;2023-06-14T06:52:33;17.20;99.90
15217;DHT22;7711;46.634;14.318;2023-06-14T06:55:00;17.20;99.90
15217;DHT22;7711;46.634;14.318;2023-06-14T06:57:27;17.30;99.90
15217;DHT22;7711;46.634;14.318;2023-06-14T06:59:55;17.20;99.90
15217;DHT22;7711;46.634;14.318;2023-06-14T07:02:22;17.10;99.90
15217;DHT22;7711;46.634;14.318;2023-06-14T07:04:49;17.10;99.90
15217;DHT22;7711;46.634;14.318;2023-06-14T07:07:18;17.30;99.90
15217;DHT22;7711;46.634;14.318;2023-06-14T07:09:46;17.50;99.90
15217;DHT22;7711;46.634;14.318;2023-06-14T07:12:13;17.40;99.90
15217;DHT22;7711;46.634;14.318;2023-06-14T07:14:40;17.50;99.90
15217;DHT22;7711;46.634;14.318;2023-06-14T07:17:07;17.40;99.90
15217;DHT22;7711;46.634;14.318;2023-06-14T07:19:35;17.40;99.90
15217;DHT22;7711;46.634;14.318;2023-06-14T07:22:02;17.40;99.90
15217;DHT22;7711;46.634;14.318;2023-06-14T07:24:29;17.40;99.90
15217;DHT22;7711;46.634;14.318;2023-06-14T07:26:57;17.30;99.90
15217;DHT22;7711;46.634;14.318;2023-06-14T07:29:24;17.30;99.90
15217;DHT22;7711;46.634;14.318;2023-06-14T07:31:52;17.40;99.90
15217;DHT22;7711;46.634;14.318;2023-06-14T07:34:19;17.50;99.90
15217;DHT22;7711;46.634;14.318;2023-06-14T07:36:46;17.60;99.90
15217;DHT22;7711;46.634;14.318;2023-06-14T07:39:13;17.50;99.90
15217;DHT22;7711;46.634;14.318;2023-06-14T07:41:40;17.40;99.90
15217;DHT22;7711;46.634;14.318;2023-06-14T07:44:09;17.30;99.90
15217;DHT22;7711;46.634;14.318;2023-06-14T07:46:36;17.00;99.90
15217;DHT22;7711;46.634;14.318;2023-06-14T07:49:03;16.90;99.90
15217;DHT22;7711;46.634;14.318;2023-06-14T07:51:30;16.90;99.90
15217;DHT22;7711;46.634;14.318;2023-06-14T07:53:59;16.80;99.90
15217;DHT22;7711;46.634;14.318;2023-06-14T07:56:28;17.00;99.90
15217;DHT22;7711;46.634;14.318;2023-06-14T07:58:55;17.20;99.90
15217;DHT22;7711;46.634;14.318;2023-06-14T08:01:24;17.20;99.90
15217;DHT22;7711;46.634;14.318;2023-06-14T08:03:51;17.20;99.90
15217;DHT22;7711;46.634;14.318;2023-06-14T08:06:18;17.30;99.90
15217;DHT22;7711;46.634;14.318;2023-06-14T08:08:45;17.30;99.90
15217;DHT22;7711;46.634;14.318;2023-06-14T08:11:12;17.50;99.90
15217;DHT22;7711;46.634;14.318;2023-06-14T08:13:39;17.50;99.90
15217;DHT22;7711;46.634;14.318;2023-06-14T08:16:07;17.40;99.90
15217;DHT22;7711;46.634;14.318;2023-06-14T08:18:35;17.70;99.90
15217;DHT22;7711;46.634;14.318;2023-06-14T08:21:02;18.00;99.90
15217;DHT22;7711;46.634;14.318;2023-06-14T08:23:29;18.50;99.90
15217;DHT22;7711;46.634;14.318;2023-06-14T08:25:56;18.70;99.90
15217;DHT22;7711;46.634;14.318;2023-06-14T08:28:24;18.90;99.90
15217;DHT22;7711;46.634;14.318;2023-06-14T08:30:51;18.70;99.90
15217;DHT22;7711;46.634;14.318;2023-06-14T08:33:18;18.90;99.90
15217;DHT22;7711;46.634;14.318;2023-06-14T08:35:46;18.80;99.90
15217;DHT22;7711;46.634;14.318;2023-06-14T08:38:14;18.90;99.90
15217;DHT22;7711;46.634;14.318;2023-06-14T08:40:41;19.20;99.90
15217;DHT22;7711;46.634;14.318;2023-06-14T08:43:08;19.50;99.90
15217;DHT22;7711;46.634;14.318;2023-06-14T08:45:36;19.50;99.90
15217;DHT22;7711;46.634;14.318;2023-06-14T08:48:05;19.70;99.90
15217;DHT22;7711;46.634;14.318;2023-06-14T08:50:32;19.60;99.90
15217;DHT22;7711;46.634;14.318;2023-06-14T08:53:02;19.20;99.90
15217;DHT22;7711;46.634;14.318;2023-06-14T08:55:31;19.60;99.90
15217;DHT22;7711;46.634;14.318;2023-06-14T08:57:58;19.70;99.90
15217;DHT22;7711;46.634;14.318;2023-06-14T09:00:26;19.60;99.90
15217;DHT22;7711;46.634;14.318;2023-06-14T09:02:54;19.30;99.90
15217;DHT22;7711;46.634;14.318;2023-06-14T09:05:24;20.00;99.90
15217;DHT22;7711;46.634;14.318;2023-06-14T09:07:51;20.40;99.90
15217;DHT22;7711;46.634;14.318;2023-06-14T09:10:22;20.30;99.90
15217;DHT22;7711;46.634;14.318;2023-06-14T09:12:51;20.60;99.90
15217;DHT22;7711;46.634;14.318;2023-06-14T09:15:18;20.50;99.90
15217;DHT22;7711;46.634;14.318;2023-06-14T09:17:46;21.00;99.90
15217;DHT22;7711;46.634;14.318;2023-06-14T09:20:13;21.40;99.90
15217;DHT22;7711;46.634;14.318;2023-06-14T09:22:43;21.30;99.90
15217;DHT22;7711;46.634;14.318;2023-06-14T09:25:10;21.40;99.90
15217;DHT22;7711;46.634;14.318;2023-06-14T09:27:39;21.20;99.90
15217;DHT22;7711;46.634;14.318;2023-06-14T09:30:10;21.20;99.90
15217;DHT22;7711;46.634;14.318;2023-06-14T09:32:37;21.00;99.90
15217;DHT22;7711;46.634;14.318;2023-06-14T09:35:06;21.00;99.90
15217;DHT22;7711;46.634;14.318;2023-06-14T09:37:33;21.00;99.90
15217;DHT22;7711;46.634;14.318;2023-06-14T09:40:01;20.80;99.90
15217;DHT22;7711;46.634;14.318;2023-06-14T09:42:28;20.70;99.90
15217;DHT22;7711;46.634;14.318;2023-06-14T09:44:57;20.70;99.90
15217;DHT22;7711;46.634;14.318;2023-06-14T09:47:24;20.90;99.90
15217;DHT22;7711;46.634;14.318;2023-06-14T09:49:52;21.10;99.90
15217;DHT22;7711;46.634;14.318;2023-06-14T09:52:21;21.10;99.90
15217;DHT22;7711;46.634;14.318;2023-06-14T09:54:49;21.10;99.90
15217;DHT22;7711;46.634;14.318;2023-06-14T09:57:20;21.40;99.90
15217;DHT22;7711;46.634;14.318;2023-06-14T09:59:48;21.50;99.90
15217;DHT22;7711;46.634;14.318;2023-06-14T10:02:25;21.40;99.90
15217;DHT22;7711;46.634;14.318;2023-06-14T10:04:58;21.40;99.90
15217;DHT22;7711;46.634;14.318;2023-06-14T10:07:27;22.00;99.90
15217;DHT22;7711;46.634;14.318;2023-06-14T10:09:57;22.40;99.90
15217;DHT22;7711;46.634;14.318;2023-06-14T10:12:25;22.60;99.90
15217;DHT22;7711;46.634;14.318;2023-06-14T10:14:53;22.50;99.90
15217;DHT22;7711;46.634;14.318;2023-06-14T10:17:27;22.50;99.90
15217;DHT22;7711;46.634;14.318;2023-06-14T10:20:07;22.40;99.90
15217;DHT22;7711;46.634;14.318;2023-06-14T10:22:43;22.30;99.90
15217;DHT22;7711;46.634;14.318;2023-06-14T10:25:13;22.80;99.90
15217;DHT22;7711;46.634;14.318;2023-06-14T10:27:52;22.80;99.90
15217;DHT22;7711;46.634;14.318;2023-06-14T10:30:25;22.90;99.90
15217;DHT22;7711;46.634;14.318;2023-06-14T10:33:07;23.40;99.90
15217;DHT22;7711;46.634;14.318;2023-06-14T10:35:35;23.20;99.90
15217;DHT22;7711;46.634;14.318;2023-06-14T10:38:09;22.60;99.90
15217;DHT22;7711;46.634;14.318;2023-06-14T10:40:36;22.60;99.90
15217;DHT22;7711;46.634;14.318;2023-06-14T10:43:24;22.60;99.90
15217;DHT22;7711;46.634;14.318;2023-06-14T10:46:15;22.80;99.90
15217;DHT22;7711;46.634;14.318;2023-06-14T10:48:44;22.80;99.90
15217;DHT22;7711;46.634;14.318;2023-06-14T10:51:16;22.80;99.90
15217;DHT22;7711;46.634;14.318;2023-06-14T10:53:46;22.90;99.90
15217;DHT22;7711;46.634;14.318;2023-06-14T10:56:23;23.60;99.90
15217;DHT22;7711;46.634;14.318;2023-06-14T10:58:52;24.00;99.90
15217;DHT22;7711;46.634;14.318;2023-06-14T11:01:28;22.50;99.90
15217;DHT22;7711;46.634;14.318;2023-06-14T11:04:07;22.00;99.90
15217;DHT22;7711;46.634;14.318;2023-06-14T11:06:47;22.20;99.90
15217;DHT22;7711;46.634;14.318;2023-06-14T11:09:39;22.30;99.90
15217;DHT22;7711;46.634;14.318;2023-06-14T11:12:13;21.80;99.90
15217;DHT22;7711;46.634;14.318;2023-06-14T11:14:41;23.00;99.90
15217;DHT22;7711;46.634;14.318;2023-06-14T11:17:08;23.50;99.90
15217;DHT22;7711;46.634;14.318;2023-06-14T11:19:36;23.50;99.90
15217;DHT22;7711;46.634;14.318;2023-06-14T11:22:03;23.60;99.90
15217;DHT22;7711;46.634;14.318;2023-06-14T11:24:32;23.50;99.90
15217;DHT22;7711;46.634;14.318;2023-06-14T11:26:59;23.40;99.90
15217;DHT22;7711;46.634;14.318;2023-06-14T11:29:29;23.50;99.90
15217;DHT22;7711;46.634;14.318;2023-06-14T11:31:56;23.60;99.90
15217;DHT22;7711;46.634;14.318;2023-06-14T11:34:24;23.40;99.90
15217;DHT22;7711;46.634;14.318;2023-06-14T11:36:53;23.10;99.90
15217;DHT22;7711;46.634;14.318;2023-06-14T11:39:24;23.60;99.90
15217;DHT22;7711;46.634;14.318;2023-06-14T11:41:51;23.50;99.90
15217;DHT22;7711;46.634;14.318;2023-06-14T11:44:18;23.20;99.90
15217;DHT22;7711;46.634;14.318;2023-06-14T11:46:45;23.20;99.90
15217;DHT22;7711;46.634;14.318;2023-06-14T11:49:12;23.40;99.90
15217;DHT22;7711;46.634;14.318;2023-06-14T11:51:39;24.20;99.90
15217;DHT22;7711;46.634;14.318;2023-06-14T11:54:08;24.00;99.90
15217;DHT22;7711;46.634;14.318;2023-06-14T11:56:36;23.90;99.90
15217;DHT22;7711;46.634;14.318;2023-06-14T11:59:03;23.70;99.90
15217;DHT22;7711;46.634;14.318;2023-06-14T12:01:31;23.30;99.90
15217;DHT22;7711;46.634;14.318;2023-06-14T12:03:59;23.20;99.90
15217;DHT22;7711;46.634;14.318;2023-06-14T12:06:27;23.40;99.90
15217;DHT22;7711;46.634;14.318;2023-06-14T12:09:03;23.50;99.90
15217;DHT22;7711;46.634;14.318;2023-06-14T12:11:34;23.50;99.90
15217;DHT22;7711;46.634;14.318;2023-06-14T12:14:03;24.00;99.90
15217;DHT22;7711;46.634;14.318;2023-06-14T12:16:31;24.40;99.90
15217;DHT22;7711;46.634;14.318;2023-06-14T12:19:01;24.40;99.90
15217;DHT22;7711;46.634;14.318;2023-06-14T12:21:28;24.70;99.90
15217;DHT22;7711;46.634;14.318;2023-06-14T12:23:56;24.90;99.90
15217;DHT22;7711;46.634;14.318;2023-06-14T12:26:24;24.90;99.90
15217;DHT22;7711;46.634;14.318;2023-06-14T12:28:54;24.90;99.90
15217;DHT22;7711;46.634;14.318;2023-06-14T12:31:23;24.30;99.90
15217;DHT22;7711;46.634;14.318;2023-06-14T12:33:52;24.10;99.90
15217;DHT22;7711;46.634;14.318;2023-06-14T12:36:19;24.20;99.90
15217;DHT22;7711;46.634;14.318;2023-06-14T12:38:47;24.60;99.90
15217;DHT22;7711;46.634;14.318;2023-06-14T12:41:14;24.50;99.90
15217;DHT22;7711;46.634;14.318;2023-06-14T12:43:41;24.70;99.90
15217;DHT22;7711;46.634;14.318;2023-06-14T12:46:10;24.80;99.90
15217;DHT22;7711;46.634;14.318;2023-06-14T12:48:37;25.00;99.90
15217;DHT22;7711;46.634;14.318;2023-06-14T12:51:04;25.20;99.90
15217;DHT22;7711;46.634;14.318;2023-06-14T12:53:31;24.90;99.90
15217;DHT22;7711;46.634;14.318;2023-06-14T12:55:58;25.10;99.90
15217;DHT22;7711;46.634;14.318;2023-06-14T12:58:25;25.60;99.90
15217;DHT22;7711;46.634;14.318;2023-06-14T13:00:53;25.70;99.90
15217;DHT22;7711;46.634;14.318;2023-06-14T13:03:21;25.70;99.90
15217;DHT22;7711;46.634;14.318;2023-06-14T13:05:49;25.60;97.10
15217;DHT22;7711;46.634;14.318;2023-06-14T13:08:16;25.20;97.00
15217;DHT22;7711;46.634;14.318;2023-06-14T13:10:43;25.10;98.70
15217;DHT22;7711;46.634;14.318;2023-06-14T13:13:09;25.60;99.00
15217;DHT22;7711;46.634;14.318;2023-06-14T13:15:38;25.70;96.70
15217;DHT22;7711;46.634;14.318;2023-06-14T13:18:05;25.20;94.90
15217;DHT22;7711;46.634;14.318;2023-06-14T13:20:33;24.60;94.40
15217;DHT22;7711;46.634;14.318;2023-06-14T13:23:00;23.70;95.10
15217;DHT22;7711;46.634;14.318;2023-06-14T13:25:28;24.10;95.70
15217;DHT22;7711;46.634;14.318;2023-06-14T13:27:55;24.70;95.50
15217;DHT22;7711;46.634;14.318;2023-06-14T13:30:22;24.90;95.50
15217;DHT22;7711;46.634;14.318;2023-06-14T13:32:49;26.30;93.80
15217;DHT22;7711;46.634;14.318;2023-06-14T13:35:17;27.50;91.70
15217;DHT22;7711;46.634;14.318;2023-06-14T13:37:45;28.40;82.90
15217;DHT22;7711;46.634;14.318;2023-06-14T13:40:13;28.80;78.10
15217;DHT22;7711;46.634;14.318;2023-06-14T13:42:40;28.50;73.10
15217;DHT22;7711;46.634;14.318;2023-06-14T13:45:08;28.90;68.10
15217;DHT22;7711;46.634;14.318;2023-06-14T13:47:35;27.90;67.60
15217;DHT22;7711;46.634;14.318;2023-06-14T13:50:02;28.40;65.70
15217;DHT22;7711;46.634;14.318;2023-06-14T13:52:29;28.00;56.50
15217;DHT22;7711;46.634;14.318;2023-06-14T13:54:58;27.40;55.50
15217;DHT22;7711;46.634;14.318;2023-06-14T13:57:25;28.00;61.80
15217;DHT22;7711;46.634;14.318;2023-06-14T13:59:52;28.90;55.90
15217;DHT22;7711;46.634;14.318;2023-06-14T14:02:21;27.50;58.20
15217;DHT22;7711;46.634;14.318;2023-06-14T14:04:48;26.70;55.60
15217;DHT22;7711;46.634;14.318;2023-06-14T14:07:19;25.60;60.60
15217;DHT22;7711;46.634;14.318;2023-06-14T14:09:48;26.60;62.90
15217;DHT22;7711;46.634;14.318;2023-06-14T14:12:16;26.80;58.90
15217;DHT22;7711;46.634;14.318;2023-06-14T14:14:43;26.50;59.10
15217;DHT22;7711;46.634;14.318;2023-06-14T14:17:11;26.50;57.50
15217;DHT22;7711;46.634;14.318;2023-06-14T14:19:38;26.30;62.00
15217;DHT22;7711;46.634;14.318;2023-06-14T14:22:05;27.10;61.80
15217;DHT22;7711;46.634;14.318;2023-06-14T14:24:32;28.10;58.50
15217;DHT22;7711;46.634;14.318;2023-06-14T14:26:59;29.00;53.90
15217;DHT22;7711;46.634;14.318;2023-06-14T14:29:28;28.90;47.40
15217;DHT22;7711;46.634;14.318;2023-06-14T14:31:56;29.40;47.40
15217;DHT22;7711;46.634;14.318;2023-06-14T14:34:23;30.30;43.40
15217;DHT22;7711;46.634;14.318;2023-06-14T14:36:50;30.50;41.60
15217;DHT22;7711;46.634;14.318;2023-06-14T14:39:17;30.60;36.30
15217;DHT22;7711;46.634;14.318;2023-06-14T14:41:44;29.20;34.60
15217;DHT22;7711;46.634;14.318;2023-06-14T14:44:11;28.30;38.70
15217;DHT22;7711;46.634;14.318;2023-06-14T14:46:39;27.50;40.70
15217;DHT22;7711;46.634;14.318;2023-06-14T14:49:07;26.70;40.90
15217;DHT22;7711;46.634;14.318;2023-06-14T14:51:34;26.40;43.10
15217;DHT22;7711;46.634;14.318;2023-06-14T14:54:01;25.90;46.20
15217;DHT22;7711;46.634;14.318;2023-06-14T14:56:27;25.70;47.30
15217;DHT22;7711;46.634;14.318;2023-06-14T14:58:54;25.50;47.40
15217;DHT22;7711;46.634;14.318;2023-06-14T15:01:21;25.60;49.50
15217;DHT22;7711;46.634;14.318;2023-06-14T15:03:50;25.30;47.60
15217;DHT22;7711;46.634;14.318;2023-06-14T15:06:16;25.00;50.70
15217;DHT22;7711;46.634;14.318;2023-06-14T15:08:44;24.60;50.60
15217;DHT22;7711;46.634;14.318;2023-06-14T15:11:11;24.30;51.10
15217;DHT22;7711;46.634;14.318;2023-06-14T15:13:38;24.00;55.20
15217;DHT22;7711;46.634;14.318;2023-06-14T15:16:05;24.00;55.10
15217;DHT22;7711;46.634;14.318;2023-06-14T15:18:32;23.70;54.40
15217;DHT22;7711;46.634;14.318;2023-06-14T15:21:00;23.50;54.60
15217;DHT22;7711;46.634;14.318;2023-06-14T15:23:27;23.20;56.40
15217;DHT22;7711;46.634;14.318;2023-06-14T15:25:54;23.20;56.10
15217;DHT22;7711;46.634;14.318;2023-06-14T15:28:21;23.10;59.20
15217;DHT22;7711;46.634;14.318;2023-06-14T15:30:49;23.00;58.50
15217;DHT22;7711;46.634;14.318;2023-06-14T15:33:16;22.70;58.30
15217;DHT22;7711;46.634;14.318;2023-06-14T15:35:43;22.80;59.00
15217;DHT22;7711;46.634;14.318;2023-06-14T15:38:11;22.80;59.30